sensor_id;sensor_type;location;lat;lon;timestamp;pressure;altitude;pressure_sealevel;temperature;humidity
40460;BME280;26164;51.138;16.952;2022-11-15T00:02:29;77364.47;;;-146.39;100.00
40460;BME280;26164;51.138;16.952;2022-11-15T00:05:38;77360.38;;;-146.39;100.00
40460;BME280;26164;51.138;16.952;2022-11-15T00:08:39;77356.28;;;-146.39;100.00
40460;BME280;26164;51.138;16.952;2022-11-15T00:11:23;77358.34;;;-146.39;100.00
40460;BME280;26164;51.138;16.952;2022-11-15T00:14:08;77346.09;;;-146.39;100.00
40460;BME280;26164;51.138;16.952;2022-11-15T00:16:52;77362.41;;;-146.39;100.00
40460;BME280;26164;51.138;16.952;2022-11-15T00:19:39;77376.72;;;-146.39;100.00
40460;BME280;26164;51.138;16.952;2022-11-15T00:22:32;77388.97;;;-146.39;100.00
40460;BME280;26164;51.138;16.952;2022-11-15T00:25:21;77403.25;;;-146.39;100.00
40460;BME280;26164;51.138;16.952;2022-11-15T00:28:08;77401.22;;;-146.39;100.00
40460;BME280;26164;51.138;16.952;2022-11-15T00:30:54;77417.56;;;-146.39;100.00
40460;BME280;26164;51.138;16.952;2022-11-15T00:33:38;77411.44;;;-146.39;100.00
40460;BME280;26164;51.138;16.952;2022-11-15T00:36:40;77411.44;;;-146.39;100.00
40460;BME280;26164;51.138;16.952;2022-11-15T00:39:27;77421.63;;;-146.39;100.00
40460;BME280;26164;51.138;16.952;2022-11-15T00:42:31;77437.97;;;-146.39;100.00
40460;BME280;26164;51.138;16.952;2022-11-15T00:45:22;77456.34;;;-146.39;100.00
40460;BME280;26164;51.138;16.952;2022-11-15T00:48:11;77470.66;;;-146.39;100.00
40460;BME280;26164;51.138;16.952;2022-11-15T00:51:02;77476.78;;;-146.39;100.00
40460;BME280;26164;51.138;16.952;2022-11-15T00:53:52;77462.47;;;-146.39;100.00
40460;BME280;26164;51.138;16.952;2022-11-15T00:56:42;77458.41;;;-146.39;100.00
40460;BME280;26164;51.138;16.952;2022-11-15T00:59:36;77470.66;;;-146.39;100.00
40460;BME280;26164;51.138;16.952;2022-11-15T01:02:22;77468.59;;;-146.39;100.00
40460;BME280;26164;51.138;16.952;2022-11-15T01:05:19;77454.31;;;-146.39;100.00
40460;BME280;26164;51.138;16.952;2022-11-15T01:08:17;77450.22;;;-146.39;100.00
40460;BME280;26164;51.138;16.952;2022-11-15T01:11:13;77454.31;;;-146.39;100.00
40460;BME280;26164;51.138;16.952;2022-11-15T01:14:09;77462.47;;;-146.39;100.00
40460;BME280;26164;51.138;16.952;2022-11-15T01:16:55;77466.56;;;-146.39;100.00
40460;BME280;26164;51.138;16.952;2022-11-15T01:19:45;77462.47;;;-146.39;100.00
40460;BME280;26164;51.138;16.952;2022-11-15T01:22:54;77474.72;;;-146.39;100.00
40460;BME280;26164;51.138;16.952;2022-11-15T01:26:24;77482.91;;;-146.39;100.00
40460;BME280;26164;51.138;16.952;2022-11-15T01:29:47;77509.44;;;-146.39;100.00
40460;BME280;26164;51.138;16.952;2022-11-15T01:32:36;77507.41;;;-146.39;100.00
40460;BME280;26164;51.138;16.952;2022-11-15T01:35:29;77503.31;;;-146.39;100.00
40460;BME280;26164;51.138;16.952;2022-11-15T01:38:15;77491.06;;;-146.39;100.00
40460;BME280;26164;51.138;16.952;2022-11-15T01:41:02;77495.16;;;-146.39;100.00
40460;BME280;26164;51.138;16.952;2022-11-15T01:43:51;77489.03;;;-146.39;100.00
40460;BME280;26164;51.138;16.952;2022-11-15T01:46:38;77489.03;;;-146.39;100.00
40460;BME280;26164;51.138;16.952;2022-11-15T01:49:24;77491.06;;;-146.39;100.00
40460;BME280;26164;51.138;16.952;2022-11-15T01:52:19;77511.47;;;-146.39;100.00
40460;BME280;26164;51.138;16.952;2022-11-15T01:55:25;77523.75;;;-146.39;100.00
40460;BME280;26164;51.138;16.952;2022-11-15T01:58:14;77523.75;;;-146.39;100.00
40460;BME280;26164;51.138;16.952;2022-11-15T02:00:59;77515.56;;;-146.39;100.00
40460;BME280;26164;51.138;16.952;2022-11-15T02:04:05;77523.75;;;-146.39;100.00
40460;BME280;26164;51.138;16.952;2022-11-15T02:06:52;77523.75;;;-146.39;100.00
40460;BME280;26164;51.138;16.952;2022-11-15T02:09:38;77511.47;;;-146.39;100.00
40460;BME280;26164;51.138;16.952;2022-11-15T02:12:25;77509.44;;;-146.39;100.00
40460;BME280;26164;51.138;16.952;2022-11-15T02:15:14;77499.22;;;-146.39;100.00
40460;BME280;26164;51.138;16.952;2022-11-15T02:18:22;77499.22;;;-146.39;100.00
40460;BME280;26164;51.138;16.952;2022-11-15T02:21:42;77511.47;;;-146.39;100.00
40460;BME280;26164;51.138;16.952;2022-11-15T02:39:42;77525.78;;;-146.39;100.00
40460;BME280;26164;51.138;16.952;2022-11-15T02:42:41;77501.28;;;-146.39;100.00
40460;BME280;26164;51.138;16.952;2022-11-15T02:46:02;77495.16;;;-146.39;100.00
40460;BME280;26164;51.138;16.952;2022-11-15T02:48:51;77474.72;;;-146.39;100.00
40460;BME280;26164;51.138;16.952;2022-11-15T02:51:46;77470.66;;;-146.39;100.00
40460;BME280;26164;51.138;16.952;2022-11-15T02:54:36;77482.91;;;-146.39;100.00
40460;BME280;26164;51.138;16.952;2022-11-15T02:58:04;77478.81;;;-146.39;100.00
40460;BME280;26164;51.138;16.952;2022-11-15T03:01:03;77495.16;;;-146.39;100.00
40460;BME280;26164;51.138;16.952;2022-11-15T03:07:39;77519.66;;;-146.39;100.00
40460;BME280;26164;51.138;16.952;2022-11-15T03:10:45;77515.56;;;-146.39;100.00
40460;BME280;26164;51.138;16.952;2022-11-15T03:13:46;77515.56;;;-146.39;100.00
40460;BME280;26164;51.138;16.952;2022-11-15T03:16:58;77536.00;;;-146.39;100.00
40460;BME280;26164;51.138;16.952;2022-11-15T03:19:54;77542.13;;;-146.39;100.00
40460;BME280;26164;51.138;16.952;2022-11-15T03:22:44;77540.06;;;-146.39;100.00
40460;BME280;26164;51.138;16.952;2022-11-15T03:25:38;77538.03;;;-146.39;100.00
40460;BME280;26164;51.138;16.952;2022-11-15T03:28:35;77538.03;;;-146.39;100.00
40460;BME280;26164;51.138;16.952;2022-11-15T03:31:23;77556.41;;;-146.39;100.00
40460;BME280;26164;51.138;16.952;2022-11-15T03:35:08;77554.38;;;-146.39;100.00
40460;BME280;26164;51.138;16.952;2022-11-15T03:40:59;77568.66;;;-146.39;100.00
40460;BME280;26164;51.138;16.952;2022-11-15T03:44:20;77582.97;;;-146.39;100.00
40460;BME280;26164;51.138;16.952;2022-11-15T03:47:21;77580.91;;;-146.39;100.00
40460;BME280;26164;51.138;16.952;2022-11-15T03:50:12;77582.97;;;-146.39;100.00
40460;BME280;26164;51.138;16.952;2022-11-15T03:53:00;77572.75;;;-146.39;100.00
40460;BME280;26164;51.138;16.952;2022-11-15T03:55:47;77570.69;;;-146.39;100.00
40460;BME280;26164;51.138;16.952;2022-11-15T03:58:34;77572.75;;;-146.39;100.00
40460;BME280;26164;51.138;16.952;2022-11-15T04:01:19;77566.63;;;-146.39;100.00
40460;BME280;26164;51.138;16.952;2022-11-15T04:04:04;77556.41;;;-146.39;100.00
40460;BME280;26164;51.138;16.952;2022-11-15T04:06:48;77548.25;;;-146.39;100.00
40460;BME280;26164;51.138;16.952;2022-11-15T04:09:34;77560.50;;;-146.39;100.00
40460;BME280;26164;51.138;16.952;2022-11-15T04:12:40;77568.66;;;-146.39;100.00
40460;BME280;26164;51.138;16.952;2022-11-15T04:15:36;77593.16;;;-146.39;100.00
40460;BME280;26164;51.138;16.952;2022-11-15T04:18:21;77613.59;;;-146.39;100.00
40460;BME280;26164;51.138;16.952;2022-11-15T04:21:08;77621.75;;;-146.39;100.00
40460;BME280;26164;51.138;16.952;2022-11-15T04:24:12;77629.91;;;-146.39;100.00
40460;BME280;26164;51.138;16.952;2022-11-15T04:26:57;77625.84;;;-146.39;100.00
40460;BME280;26164;51.138;16.952;2022-11-15T04:29:44;77621.75;;;-146.39;100.00
40460;BME280;26164;51.138;16.952;2022-11-15T04:32:29;77607.47;;;-146.39;100.00
40460;BME280;26164;51.138;16.952;2022-11-15T04:35:13;77589.09;;;-146.39;100.00
40460;BME280;26164;51.138;16.952;2022-11-15T04:37:58;77589.09;;;-146.39;100.00
40460;BME280;26164;51.138;16.952;2022-11-15T04:40:43;77564.56;;;-146.39;100.00
40460;BME280;26164;51.138;16.952;2022-11-15T04:43:30;77564.56;;;-146.39;100.00
40460;BME280;26164;51.138;16.952;2022-11-15T04:46:14;77574.78;;;-146.39;100.00
40460;BME280;26164;51.138;16.952;2022-11-15T04:49:03;77580.91;;;-146.39;100.00
40460;BME280;26164;51.138;16.952;2022-11-15T04:51:53;77574.78;;;-146.39;100.00
40460;BME280;26164;51.138;16.952;2022-11-15T04:54:45;77564.56;;;-146.39;100.00
40460;BME280;26164;51.138;16.952;2022-11-15T04:57:30;77568.66;;;-146.39;100.00
40460;BME280;26164;51.138;16.952;2022-11-15T05:00:17;77580.91;;;-146.39;100.00
40460;BME280;26164;51.138;16.952;2022-11-15T05:03:02;77580.91;;;-146.39;100.00
40460;BME280;26164;51.138;16.952;2022-11-15T05:06:10;77576.81;;;-146.39;100.00
40460;BME280;26164;51.138;16.952;2022-11-15T05:09:00;77576.81;;;-146.39;100.00
40460;BME280;26164;51.138;16.952;2022-11-15T05:12:00;77574.78;;;-146.39;100.00
40460;BME280;26164;51.138;16.952;2022-11-15T05:14:50;77589.09;;;-146.39;100.00
40460;BME280;26164;51.138;16.952;2022-11-15T05:17:35;77593.16;;;-146.39;100.00
40460;BME280;26164;51.138;16.952;2022-11-15T05:20:24;77593.16;;;-146.39;100.00
40460;BME280;26164;51.138;16.952;2022-11-15T05:23:12;77593.16;;;-146.39;100.00
40460;BME280;26164;51.138;16.952;2022-11-15T05:26:14;77597.25;;;-146.39;100.00
40460;BME280;26164;51.138;16.952;2022-11-15T05:29:44;77634.00;;;-146.39;100.00
40460;BME280;26164;51.138;16.952;2022-11-15T05:32:40;77648.31;;;-146.39;100.00
40460;BME280;26164;51.138;16.952;2022-11-15T05:35:38;77646.25;;;-146.39;100.00
40460;BME280;26164;51.138;16.952;2022-11-15T05:38:41;77636.06;;;-146.39;100.00
40460;BME280;26164;51.138;16.952;2022-11-15T05:41:38;77634.00;;;-146.39;100.00
40460;BME280;26164;51.138;16.952;2022-11-15T05:44:28;77617.66;;;-146.39;100.00
40460;BME280;26164;51.138;16.952;2022-11-15T05:47:25;77601.34;;;-146.39;100.00
40460;BME280;26164;51.138;16.952;2022-11-15T05:50:25;77576.81;;;-146.39;100.00
40460;BME280;26164;51.138;16.952;2022-11-15T05:53:37;77580.91;;;-146.39;100.00
40460;BME280;26164;51.138;16.952;2022-11-15T05:56:30;77593.16;;;-146.39;100.00
40460;BME280;26164;51.138;16.952;2022-11-15T05:59:15;77593.16;;;-146.39;100.00
40460;BME280;26164;51.138;16.952;2022-11-15T06:02:01;77593.16;;;-146.39;100.00
40460;BME280;26164;51.138;16.952;2022-11-15T06:04:45;77591.13;;;-146.39;100.00
40460;BME280;26164;51.138;16.952;2022-11-15T06:07:30;77585.00;;;-146.39;100.00
40460;BME280;26164;51.138;16.952;2022-11-15T06:10:14;77572.75;;;-146.39;100.00
40460;BME280;26164;51.138;16.952;2022-11-15T06:13:03;77560.50;;;-146.39;100.00
40460;BME280;26164;51.138;16.952;2022-11-15T06:15:48;77566.63;;;-146.39;100.00
40460;BME280;26164;51.138;16.952;2022-11-15T06:18:36;77572.75;;;-146.39;100.00
40460;BME280;26164;51.138;16.952;2022-11-15T06:21:20;77572.75;;;-146.39;100.00
40460;BME280;26164;51.138;16.952;2022-11-15T06:24:05;77576.81;;;-146.39;100.00
40460;BME280;26164;51.138;16.952;2022-11-15T06:26:53;77578.88;;;-146.39;100.00
40460;BME280;26164;51.138;16.952;2022-11-15T06:29:37;77585.00;;;-146.39;100.00
40460;BME280;26164;51.138;16.952;2022-11-15T06:32:21;77597.25;;;-146.39;100.00
40460;BME280;26164;51.138;16.952;2022-11-15T06:35:17;77593.16;;;-146.39;100.00
40460;BME280;26164;51.138;16.952;2022-11-15T06:38:25;77613.59;;;-146.39;100.00
40460;BME280;26164;51.138;16.952;2022-11-15T06:41:14;77607.47;;;-146.39;100.00
40460;BME280;26164;51.138;16.952;2022-11-15T06:44:07;77603.38;;;-146.39;100.00
40460;BME280;26164;51.138;16.952;2022-11-15T06:47:02;77593.16;;;-146.39;100.00
40460;BME280;26164;51.138;16.952;2022-11-15T06:49:46;77564.56;;;-146.39;100.00
40460;BME280;26164;51.138;16.952;2022-11-15T06:52:40;77568.66;;;-146.39;100.00
40460;BME280;26164;51.138;16.952;2022-11-15T06:55:26;77574.78;;;-146.39;100.00
40460;BME280;26164;51.138;16.952;2022-11-15T06:58:28;77572.75;;;-146.39;100.00
40460;BME280;26164;51.138;16.952;2022-11-15T07:01:41;77570.69;;;-146.39;100.00
40460;BME280;26164;51.138;16.952;2022-11-15T07:04:28;77558.44;;;-146.39;100.00
40460;BME280;26164;51.138;16.952;2022-11-15T07:07:14;77552.31;;;-146.39;100.00
40460;BME280;26164;51.138;16.952;2022-11-15T07:09:58;77552.31;;;-146.39;100.00
40460;BME280;26164;51.138;16.952;2022-11-15T07:12:46;77564.56;;;-146.39;100.00
40460;BME280;26164;51.138;16.952;2022-11-15T07:15:30;77556.41;;;-146.39;100.00
40460;BME280;26164;51.138;16.952;2022-11-15T07:18:15;77544.16;;;-146.39;100.00
40460;BME280;26164;51.138;16.952;2022-11-15T07:21:02;77540.06;;;-146.39;100.00
40460;BME280;26164;51.138;16.952;2022-11-15T07:23:47;77521.69;;;-146.39;100.00
40460;BME280;26164;51.138;16.952;2022-11-15T07:26:31;77503.31;;;-146.39;100.00
40460;BME280;26164;51.138;16.952;2022-11-15T07:29:17;77493.09;;;-146.39;100.00
40460;BME280;26164;51.138;16.952;2022-11-15T07:32:11;77491.06;;;-146.39;100.00
40460;BME280;26164;51.138;16.952;2022-11-15T07:35:50;77466.56;;;-146.39;100.00
40460;BME280;26164;51.138;16.952;2022-11-15T07:39:02;77450.22;;;-146.39;100.00
40460;BME280;26164;51.138;16.952;2022-11-15T07:42:14;77431.84;;;-146.39;100.00
40460;BME280;26164;51.138;16.952;2022-11-15T07:45:42;77429.81;;;-146.39;100.00
40460;BME280;26164;51.138;16.952;2022-11-15T07:48:49;77417.56;;;-146.39;100.00
40460;BME280;26164;51.138;16.952;2022-11-15T07:51:38;77413.47;;;-146.39;100.00
40460;BME280;26164;51.138;16.952;2022-11-15T07:55:07;77397.13;;;-146.39;100.00
40460;BME280;26164;51.138;16.952;2022-11-15T07:58:07;77374.69;;;-146.39;100.00
40460;BME280;26164;51.138;16.952;2022-11-15T08:00:58;77352.22;;;-146.39;100.00
40460;BME280;26164;51.138;16.952;2022-11-15T08:07:29;77307.28;;;-146.39;100.00
40460;BME280;26164;51.138;16.952;2022-11-15T08:13:26;77270.53;;;-146.39;100.00
40460;BME280;26164;51.138;16.952;2022-11-15T08:16:10;77256.25;;;-146.39;100.00
40460;BME280;26164;51.138;16.952;2022-11-15T08:18:58;77211.31;;;-146.39;100.00
40460;BME280;26164;51.138;16.952;2022-11-15T08:24:58;77211.31;;;-146.39;100.00
40460;BME280;26164;51.138;16.952;2022-11-15T08:27:44;77199.06;;;-146.39;100.00
40460;BME280;26164;51.138;16.952;2022-11-15T08:30:29;77182.75;;;-146.39;100.00
40460;BME280;26164;51.138;16.952;2022-11-15T08:33:15;77172.53;;;-146.39;100.00
40460;BME280;26164;51.138;16.952;2022-11-15T08:36:01;77162.31;;;-146.39;100.00
40460;BME280;26164;51.138;16.952;2022-11-15T08:38:51;77152.13;;;-146.39;100.00
40460;BME280;26164;51.138;16.952;2022-11-15T08:42:12;77133.72;;;-146.39;100.00
40460;BME280;26164;51.138;16.952;2022-11-15T08:45:55;77111.28;;;-146.39;100.00
40460;BME280;26164;51.138;16.952;2022-11-15T08:52:50;77062.28;;;-146.39;100.00
40460;BME280;26164;51.138;16.952;2022-11-15T08:55:36;77043.91;;;-146.39;100.00
40460;BME280;26164;51.138;16.952;2022-11-15T08:58:27;77033.69;;;-146.39;100.00
40460;BME280;26164;51.138;16.952;2022-11-15T09:01:19;77013.28;;;-146.39;100.00
40460;BME280;26164;51.138;16.952;2022-11-15T09:04:04;77001.03;;;-146.39;100.00
40460;BME280;26164;51.138;16.952;2022-11-15T09:06:54;76982.66;;;-146.39;100.00
40460;BME280;26164;51.138;16.952;2022-11-15T09:09:41;76964.28;;;-146.39;100.00
40460;BME280;26164;51.138;16.952;2022-11-15T09:12:26;76956.09;;;-146.39;100.00
40460;BME280;26164;51.138;16.952;2022-11-15T09:15:13;76943.84;;;-146.39;100.00
40460;BME280;26164;51.138;16.952;2022-11-15T09:18:26;76923.44;;;-146.39;100.00
40460;BME280;26164;51.138;16.952;2022-11-15T09:28:13;76874.44;;;-146.39;100.00
40460;BME280;26164;51.138;16.952;2022-11-15T09:30:59;76849.94;;;-146.39;100.00
40460;BME280;26164;51.138;16.952;2022-11-15T09:33:47;76833.59;;;-146.39;100.00
40460;BME280;26164;51.138;16.952;2022-11-15T09:36:34;76809.09;;;-146.39;100.00
40460;BME280;26164;51.138;16.952;2022-11-15T09:39:19;76784.59;;;-146.39;100.00
40460;BME280;26164;51.138;16.952;2022-11-15T09:45:23;76749.91;;;-146.39;100.00
40460;BME280;26164;51.138;16.952;2022-11-15T09:49:04;76723.34;;;-146.39;100.00
40460;BME280;26164;51.138;16.952;2022-11-15T09:57:38;76655.97;;;-146.39;100.00
40460;BME280;26164;51.138;16.952;2022-11-15T10:04:14;76617.19;;;-146.39;100.00
40460;BME280;26164;51.138;16.952;2022-11-15T10:20:23;76506.97;;;-146.39;100.00
40460;BME280;26164;51.138;16.952;2022-11-15T10:35:44;76388.56;;;-146.39;100.00
40460;BME280;26164;51.138;16.952;2022-11-15T11:03:29;76247.69;;;-146.39;100.00
40460;BME280;26164;51.138;16.952;2022-11-15T11:06:45;76229.31;;;-146.39;100.00
40460;BME280;26164;51.138;16.952;2022-11-15T12:04:48;75984.38;;;-146.39;91.67
40460;BME280;26164;51.138;16.952;2022-11-15T12:20:23;75906.81;;;-146.39;82.59
40460;BME280;26164;51.138;16.952;2022-11-15T12:27:38;75778.22;;;-146.39;73.32
40460;BME280;26164;51.138;16.952;2022-11-15T12:43:43;75641.47;;;-146.39;65.07
40460;BME280;26164;51.138;16.952;2022-11-15T12:53:43;75568.00;;;-146.39;62.88
40460;BME280;26164;51.138;16.952;2022-11-15T13:00:00;75539.41;;;-146.39;60.45
40460;BME280;26164;51.138;16.952;2022-11-15T13:02:47;75525.13;;;-146.39;59.42
40460;BME280;26164;51.138;16.952;2022-11-15T13:08:37;75576.16;;;-146.39;60.54
40460;BME280;26164;51.138;16.952;2022-11-15T13:11:41;75543.50;;;-146.39;59.90
40460;BME280;26164;51.138;16.952;2022-11-15T13:17:09;75470.03;;;-146.39;57.54
40460;BME280;26164;51.138;16.952;2022-11-15T13:29:46;75421.03;;;-146.39;55.45
40460;BME280;26164;51.138;16.952;2022-11-15T13:32:18;75400.63;;;-146.39;54.91
40460;BME280;26164;51.138;16.952;2022-11-15T13:34:46;75445.53;;;-146.39;55.85
40460;BME280;26164;51.138;16.952;2022-11-15T13:39:49;75412.88;;;-146.39;54.92
40460;BME280;26164;51.138;16.952;2022-11-15T13:42:18;75400.63;;;-146.39;54.85
40460;BME280;26164;51.138;16.952;2022-11-15T13:45:00;75429.22;;;-146.39;54.71
40460;BME280;26164;51.138;16.952;2022-11-15T13:47:28;75404.72;;;-146.39;54.62
40460;BME280;26164;51.138;16.952;2022-11-15T13:49:59;75376.13;;;-146.39;54.39
40460;BME280;26164;51.138;16.952;2022-11-15T13:52:37;75404.72;;;-146.39;54.98
40460;BME280;26164;51.138;16.952;2022-11-15T13:55:20;75392.47;;;-146.39;54.82
40460;BME280;26164;51.138;16.952;2022-11-15T13:57:56;75382.25;;;-146.39;54.94
40460;BME280;26164;51.138;16.952;2022-11-15T14:03:23;75510.84;;;-146.39;58.62
40460;BME280;26164;51.138;16.952;2022-11-15T14:06:08;75482.28;;;-146.39;57.99
40460;BME280;26164;51.138;16.952;2022-11-15T14:11:35;75514.94;;;-146.39;58.67
40460;BME280;26164;51.138;16.952;2022-11-15T14:16:55;75523.09;;;-146.39;60.14
40460;BME280;26164;51.138;16.952;2022-11-15T14:19:51;75527.16;;;-146.39;59.92
40460;BME280;26164;51.138;16.952;2022-11-15T14:22:54;75539.41;;;-146.39;60.49
40460;BME280;26164;51.138;16.952;2022-11-15T14:26:25;75604.72;;;-146.39;62.14
40460;BME280;26164;51.138;16.952;2022-11-15T14:29:23;75633.31;;;-146.39;64.75
40460;BME280;26164;51.138;16.952;2022-11-15T14:33:11;75653.72;;;-146.39;66.17
40460;BME280;26164;51.138;16.952;2022-11-15T14:35:52;75678.19;;;-146.39;67.74
40460;BME280;26164;51.138;16.952;2022-11-15T14:38:38;75706.78;;;-146.39;69.39
40460;BME280;26164;51.138;16.952;2022-11-15T14:41:26;75733.31;;;-146.39;71.06
40460;BME280;26164;51.138;16.952;2022-11-15T14:44:10;75755.75;;;-146.39;72.75
40460;BME280;26164;51.138;16.952;2022-11-15T14:46:52;75772.09;;;-146.39;73.94
40460;BME280;26164;51.138;16.952;2022-11-15T14:49:27;75821.09;;;-146.39;75.77
40460;BME280;26164;51.138;16.952;2022-11-15T14:51:56;75868.03;;;-146.39;78.29
40460;BME280;26164;51.138;16.952;2022-11-15T14:54:41;75912.94;;;-146.39;80.62
40460;BME280;26164;51.138;16.952;2022-11-15T14:57:12;75943.56;;;-146.39;82.60
40460;BME280;26164;51.138;16.952;2022-11-15T14:59:38;75976.22;;;-146.39;84.71
40460;BME280;26164;51.138;16.952;2022-11-15T15:02:30;76012.94;;;-146.39;87.41
40460;BME280;26164;51.138;16.952;2022-11-15T15:05:00;76037.44;;;-146.39;90.05
40460;BME280;26164;51.138;16.952;2022-11-15T15:07:28;76070.09;;;-146.39;92.82
40460;BME280;26164;51.138;16.952;2022-11-15T15:09:55;76092.56;;;-146.39;96.48
40460;BME280;26164;51.138;16.952;2022-11-15T15:12:51;76123.19;;;-146.39;100.00
40460;BME280;26164;51.138;16.952;2022-11-15T15:15:38;76123.19;;;-146.39;100.00
40460;BME280;26164;51.138;16.952;2022-11-15T15:18:46;76137.47;;;-146.39;100.00
40460;BME280;26164;51.138;16.952;2022-11-15T15:21:31;76147.66;;;-146.39;100.00
40460;BME280;26164;51.138;16.952;2022-11-15T15:24:15;76147.66;;;-146.39;100.00
40460;BME280;26164;51.138;16.952;2022-11-15T15:26:50;76139.50;;;-146.39;100.00
40460;BME280;26164;51.138;16.952;2022-11-15T15:29:19;76137.47;;;-146.39;100.00
40460;BME280;26164;51.138;16.952;2022-11-15T15:32:05;76145.63;;;-146.39;100.00
40460;BME280;26164;51.138;16.952;2022-11-15T15:34:47;76149.72;;;-146.39;100.00
40460;BME280;26164;51.138;16.952;2022-11-15T15:37:31;76155.84;;;-146.39;100.00
40460;BME280;26164;51.138;16.952;2022-11-15T15:40:24;76172.16;;;-146.39;100.00
40460;BME280;26164;51.138;16.952;2022-11-15T15:42:51;76188.50;;;-146.39;100.00
40460;BME280;26164;51.138;16.952;2022-11-15T15:45:27;76213.00;;;-146.39;100.00
40460;BME280;26164;51.138;16.952;2022-11-15T15:48:01;76231.38;;;-146.39;100.00
40460;BME280;26164;51.138;16.952;2022-11-15T15:50:32;76249.75;;;-146.39;100.00
40460;BME280;26164;51.138;16.952;2022-11-15T15:53:18;76282.41;;;-146.39;100.00
40460;BME280;26164;51.138;16.952;2022-11-15T15:56:08;76270.16;;;-146.39;100.00
40460;BME280;26164;51.138;16.952;2022-11-15T15:58:51;76278.31;;;-146.39;100.00
40460;BME280;26164;51.138;16.952;2022-11-15T16:01:33;76278.31;;;-146.39;100.00
40460;BME280;26164;51.138;16.952;2022-11-15T16:04:19;76290.56;;;-146.39;100.00
40460;BME280;26164;51.138;16.952;2022-11-15T16:07:37;76310.97;;;-146.39;100.00
40460;BME280;26164;51.138;16.952;2022-11-15T16:10:54;76319.16;;;-146.39;100.00
40460;BME280;26164;51.138;16.952;2022-11-15T16:13:47;76331.41;;;-146.39;100.00
40460;BME280;26164;51.138;16.952;2022-11-15T16:16:24;76327.31;;;-146.39;100.00
40460;BME280;26164;51.138;16.952;2022-11-15T16:22:59;76310.97;;;-146.39;100.00
40460;BME280;26164;51.138;16.952;2022-11-15T16:26:35;76333.44;;;-146.39;100.00
40460;BME280;26164;51.138;16.952;2022-11-15T16:29:52;76343.63;;;-146.39;100.00
40460;BME280;26164;51.138;16.952;2022-11-15T16:32:46;76347.72;;;-146.39;100.00
40460;BME280;26164;51.138;16.952;2022-11-15T18:03:37;76549.81;;;-146.39;100.00
40460;BME280;26164;51.138;16.952;2022-11-15T18:25:11;76629.44;;;-146.39;100.00
40460;BME280;26164;51.138;16.952;2022-11-15T18:34:01;76633.53;;;-146.39;100.00
40460;BME280;26164;51.138;16.952;2022-11-15T18:36:38;76643.75;;;-146.39;100.00
40460;BME280;26164;51.138;16.952;2022-11-15T18:39:04;76645.78;;;-146.39;100.00
40460;BME280;26164;51.138;16.952;2022-11-15T18:41:42;76651.91;;;-146.39;100.00
40460;BME280;26164;51.138;16.952;2022-11-15T18:44:18;76666.19;;;-146.39;100.00
40460;BME280;26164;51.138;16.952;2022-11-15T18:46:46;76676.41;;;-146.39;100.00
40460;BME280;26164;51.138;16.952;2022-11-15T18:49:30;76666.19;;;-146.39;100.00
40460;BME280;26164;51.138;16.952;2022-11-15T18:52:19;76670.28;;;-146.39;100.00
40460;BME280;26164;51.138;16.952;2022-11-15T18:55:03;76672.31;;;-146.39;100.00
40460;BME280;26164;51.138;16.952;2022-11-15T18:57:46;76672.31;;;-146.39;100.00
40460;BME280;26164;51.138;16.952;2022-11-15T20:25:54;76572.28;;;-146.39;100.00
40460;BME280;26164;51.138;16.952;2022-11-15T20:28:45;76576.38;;;-146.39;100.00
40460;BME280;26164;51.138;16.952;2022-11-15T20:40:51;76539.63;;;-146.39;100.00
40460;BME280;26164;51.138;16.952;2022-11-15T20:46:11;76502.88;;;-146.39;100.00
40460;BME280;26164;51.138;16.952;2022-11-15T20:49:08;76519.22;;;-146.39;100.00
40460;BME280;26164;51.138;16.952;2022-11-15T20:54:31;76541.66;;;-146.39;100.00
40460;BME280;26164;51.138;16.952;2022-11-15T20:57:10;76535.53;;;-146.39;100.00
40460;BME280;26164;51.138;16.952;2022-11-15T20:59:59;76509.00;;;-146.39;100.00
40460;BME280;26164;51.138;16.952;2022-11-15T21:02:43;76539.63;;;-146.39;100.00
40460;BME280;26164;51.138;16.952;2022-11-15T21:05:23;76558.00;;;-146.39;100.00
40460;BME280;26164;51.138;16.952;2022-11-15T21:08:05;76535.53;;;-146.39;100.00
40460;BME280;26164;51.138;16.952;2022-11-15T22:22:40;76506.97;;;-146.39;100.00
40460;BME280;26164;51.138;16.952;2022-11-15T22:25:57;76486.53;;;-146.39;100.00
40460;BME280;26164;51.138;16.952;2022-11-15T22:30:01;76474.28;;;-146.39;100.00
40460;BME280;26164;51.138;16.952;2022-11-15T22:42:42;76482.47;;;-146.39;100.00
40460;BME280;26164;51.138;16.952;2022-11-15T22:45:24;76470.22;;;-146.39;100.00
40460;BME280;26164;51.138;16.952;2022-11-15T22:54:23;76478.38;;;-146.39;100.00
40460;BME280;26164;51.138;16.952;2022-11-15T22:57:33;76478.38;;;-146.39;100.00
40460;BME280;26164;51.138;16.952;2022-11-15T23:05:11;76482.47;;;-146.39;100.00
40460;BME280;26164;51.138;16.952;2022-11-15T23:09:34;76492.66;;;-146.39;100.00
40460;BME280;26164;51.138;16.952;2022-11-15T23:21:42;76521.25;;;-146.39;100.00
40460;BME280;26164;51.138;16.952;2022-11-15T23:24:45;76523.28;;;-146.39;100.00
40460;BME280;26164;51.138;16.952;2022-11-15T23:27:26;76523.28;;;-146.39;100.00
40460;BME280;26164;51.138;16.952;2022-11-15T23:30:20;76531.44;;;-146.39;100.00
40460;BME280;26164;51.138;16.952;2022-11-15T23:33:24;76543.69;;;-146.39;100.00
40460;BME280;26164;51.138;16.952;2022-11-15T23:36:59;76555.94;;;-146.39;100.00